Time;durP1;ratioP1;P1;durP2;ratioP2;P2;SDS_P1;SDS_P2;PMS_P1;PMS_P2;Temp;Humidity;BMP_temperature;BMP_pressure;BME280_temperature;BME280_humidity;BME280_pressure;Samples;Min_cycle;Max_cycle;Signal;HPM_P1;HPM_P2
2023/09/30 00:01:14;;;;;;;5.20;2.80;;;;;;;17.18;100.00;99477.84;106958;1270;22525;-63
2023/09/30 00:03:43;;;;;;;;;;;;;;;17.14;100.00;99479.73;106814;1269;22637;-64
2023/09/30 00:06:12;;;;;;;10.10;2.20;;;;;;;17.11;100.00;99483.23;106754;1254;86260;-64
2023/09/30 00:08:41;;;;;;;3.40;2.10;;;;;;;17.10;100.00;99484.69;106825;1269;25303;-63
2023/09/30 00:11:10;;;;;;;3.10;2.40;;;;;;;17.09;100.00;99479.48;106706;1270;100731;-63
2023/09/30 00:13:39;;;;;;;4.90;2.00;;;;;;;17.07;100.00;99479.66;106915;1269;24696;-63
2023/09/30 00:16:07;;;;;;;7.20;2.20;;;;;;;17.04;100.00;99477.75;106711;1269;99796;-63
2023/09/30 00:18:36;;;;;;;4.10;2.60;;;;;;;17.01;100.00;99472.67;107063;1269;26300;-62
2023/09/30 00:21:05;;;;;;;4.10;2.10;;;;;;;17.00;100.00;99472.65;106899;1269;25297;-62
2023/09/30 00:23:34;;;;;;;4.70;2.20;;;;;;;16.98;100.00;99469.46;106716;1269;99863;-62
2023/09/30 00:26:03;;;;;;;3.80;2.30;;;;;;;16.96;100.00;99464.45;106678;1270;22559;-63
2023/09/30 00:28:31;;;;;;;2.50;2.10;;;;;;;16.93;100.00;99467.19;106672;1262;102712;-63
2023/09/30 00:31:00;;;;;;;3.70;2.40;;;;;;;16.93;100.00;99466.16;107281;1269;25555;-63
2023/09/30 00:33:29;;;;;;;3.50;2.70;;;;;;;16.91;100.00;99466.09;106851;1269;25392;-62
2023/09/30 00:35:58;;;;;;;2.90;2.40;;;;;;;16.92;100.00;99466.75;107370;1269;99201;-63
2023/09/30 00:38:26;;;;;;;6.50;2.40;;;;;;;16.90;100.00;99465.45;107093;1266;22536;-63
2023/09/30 00:40:55;;;;;;;3.10;2.70;;;;;;;16.91;100.00;99462.03;106639;1269;99230;-63
2023/09/30 00:43:23;;;;;;;3.40;2.60;;;;;;;16.89;100.00;99463.30;106826;1262;25454;-63
2023/09/30 00:46:11;;;;;;;3.30;2.30;;;;;;;16.86;100.00;99468.42;106812;1270;25328;-63
2023/09/30 00:48:42;;;;;;;3.20;2.70;;;;;;;16.83;100.00;99471.48;107101;1262;22521;-62
2023/09/30 00:51:11;;;;;;;5.30;3.10;;;;;;;16.82;100.00;99471.57;106729;1269;22521;-63
2023/09/30 00:53:40;;;;;;;4.20;3.00;;;;;;;16.77;100.00;99475.56;107203;1269;99783;-63
2023/09/30 00:56:10;;;;;;;4.20;3.00;;;;;;;16.77;100.00;99476.11;106884;1269;22663;-63
2023/09/30 00:58:40;;;;;;;3.50;2.60;;;;;;;16.77;100.00;99469.96;108013;1269;100477;-63
2023/09/30 01:01:09;;;;;;;5.00;2.90;;;;;;;16.75;100.00;99467.61;106848;1263;23366;-63
2023/09/30 01:03:38;;;;;;;5.80;3.80;;;;;;;16.71;100.00;99462.84;106890;1263;25405;-63
2023/09/30 01:06:07;;;;;;;3.90;3.00;;;;;;;16.66;100.00;99462.73;107432;1254;99188;-63
2023/09/30 01:08:36;;;;;;;3.30;2.30;;;;;;;16.62;100.00;99467.23;107741;1266;24938;-63
2023/09/30 01:11:06;;;;;;;3.00;2.60;;;;;;;16.58;100.00;99474.98;106557;1267;99739;-63
2023/09/30 01:13:36;;;;;;;3.50;2.70;;;;;;;16.55;100.00;99474.95;106995;1269;24255;-62
2023/09/30 01:16:06;;;;;;;4.20;2.20;;;;;;;16.53;100.00;99478.67;106637;1263;100529;-62
2023/09/30 01:18:34;;;;;;;4.10;2.90;;;;;;;16.51;100.00;99475.80;110204;1269;22306;-64
2023/09/30 01:21:05;;;;;;;3.80;3.10;;;;;;;16.53;100.00;99473.89;110517;1269;22164;-61
2023/09/30 01:23:35;;;;;;;3.50;2.70;;;;;;;16.51;100.00;99475.83;110440;1269;100240;-61
2023/09/30 01:26:05;;;;;;;3.00;2.40;;;;;;;16.52;100.00;99482.23;110523;1270;22196;-61
2023/09/30 01:28:34;;;;;;;4.40;2.30;;;;;;;16.56;100.00;99485.77;110460;1269;100039;-61
2023/09/30 01:31:02;;;;;;;4.10;2.70;;;;;;;16.59;100.00;99487.86;109601;1270;22554;-61
2023/09/30 01:33:32;;;;;;;5.10;2.40;;;;;;;16.61;100.00;99480.85;106711;1269;22537;-63
2023/09/30 01:36:01;;;;;;;3.10;2.50;;;;;;;16.61;100.00;99469.98;107680;1269;100245;-63
2023/09/30 01:38:30;;;;;;;4.20;2.90;;;;;;;16.60;100.00;99467.42;106675;1269;26206;-63
2023/09/30 01:40:58;;;;;;;4.40;3.00;;;;;;;16.58;100.00;99459.98;106623;1269;100824;-63
2023/09/30 01:43:29;;;;;;;5.30;3.20;;;;;;;16.55;100.00;99462.84;106647;1265;25319;-64
2023/09/30 01:45:58;;;;;;;4.10;2.90;;;;;;;16.56;100.00;99463.30;107534;1266;100443;-63
2023/09/30 01:48:27;;;;;;;4.10;3.10;;;;;;;16.64;100.00;99462.88;107018;1269;23340;-63
2023/09/30 01:50:56;;;;;;;4.30;3.40;;;;;;;16.72;100.00;99459.59;107020;1269;22541;-63
2023/09/30 01:53:24;;;;;;;4.10;3.30;;;;;;;16.79;100.00;99462.81;106796;1269;99711;-63
2023/09/30 01:55:53;;;;;;;4.20;2.90;;;;;;;16.86;100.00;99470.04;106752;1270;22540;-63
2023/09/30 01:58:22;;;;;;;4.80;3.50;;;;;;;16.92;100.00;99471.09;106832;1271;99875;-63
2023/09/30 02:00:50;;;;;;;5.00;3.10;;;;;;;17.00;100.00;99474.55;107413;1269;25356;-63
2023/09/30 02:03:19;;;;;;;3.20;2.70;;;;;;;17.06;100.00;99475.85;107558;1269;22524;-62
2023/09/30 02:05:49;;;;;;;4.30;3.30;;;;;;;17.10;100.00;99476.02;107064;1265;100880;-63
2023/09/30 02:08:18;;;;;;;8.70;4.00;;;;;;;17.15;100.00;99480.23;107152;1269;22892;-63
2023/09/30 02:10:46;;;;;;;3.60;3.10;;;;;;;17.17;100.00;99479.52;106481;1272;99280;-63
2023/09/30 02:13:15;;;;;;;5.70;3.00;;;;;;;17.20;100.00;99479.44;106903;1269;25485;-62
2023/09/30 02:15:47;;;;;;;4.50;3.00;;;;;;;17.24;100.00;99477.79;106398;1273;25313;-62
2023/09/30 02:18:17;;;;;;;4.00;2.90;;;;;;;17.26;100.00;99473.95;107051;1269;99709;-63
2023/09/30 02:20:46;;;;;;;3.90;3.00;;;;;;;17.29;100.00;99479.02;106652;1267;22516;-63
2023/09/30 02:23:17;;;;;;;4.50;3.40;;;;;;;17.31;100.00;99477.94;106531;1265;100004;-64
2023/09/30 02:25:45;;;;;;;5.50;3.90;;;;;;;17.33;100.00;99480.59;106685;1269;25285;-63
2023/09/30 02:28:14;;;;;;;4.70;3.60;;;;;;;17.35;100.00;99486.95;106584;1269;100016;-62
2023/09/30 02:30:42;;;;;;;6.60;3.60;;;;;;;17.35;100.00;99481.64;106854;1269;24303;-62
2023/09/30 02:33:11;;;;;;;4.10;3.30;;;;;;;17.35;100.00;99483.39;106622;1269;22577;-62
2023/09/30 02:35:45;;;;;;;4.00;2.70;;;;;;;17.38;100.00;99487.06;107087;1269;100526;-63
2023/09/30 02:38:16;;;;;;;4.80;3.10;;;;;;;17.41;100.00;99487.84;106896;1269;25147;-64
2023/09/30 02:40:46;;;;;;;4.60;3.10;;;;;;;17.42;100.00;99488.11;106584;1269;100199;-63
2023/09/30 02:43:15;;;;;;;4.10;3.60;;;;;;;17.45;100.00;99493.20;107008;1269;24068;-63
2023/09/30 02:45:46;;;;;;;3.50;2.50;;;;;;;17.45;100.00;99494.98;106864;1269;25426;-63
2023/09/30 02:48:14;;;;;;;6.20;3.20;;;;;;;17.44;100.00;99494.98;106958;1269;99603;-64
2023/09/30 02:50:44;;;;;;;4.90;2.90;;;;;;;17.45;100.00;99495.45;106772;1270;25462;-64
2023/09/30 02:53:14;;;;;;;2.90;2.20;;;;;;;17.48;100.00;99490.13;106714;1270;100109;-63
2023/09/30 02:55:43;;;;;;;3.10;2.60;;;;;;;17.51;100.00;99492.52;106835;1269;22548;-64
2023/09/30 02:58:12;;;;;;;5.40;3.50;;;;;;;17.53;100.00;99499.43;106673;1269;100164;-63
2023/09/30 03:00:40;;;;;;;5.40;3.40;;;;;;;17.53;100.00;99500.65;107235;1269;26236;-64
2023/09/30 03:03:09;;;;;;;2.90;2.60;;;;;;;17.49;100.00;99504.49;106717;1269;22537;-62
2023/09/30 03:05:38;;;;;;;2.10;1.80;;;;;;;17.37;100.00;99521.99;106774;1269;99267;-63
2023/09/30 03:08:07;;;;;;;1.90;1.50;;;;;;;17.19;100.00;99531.06;106716;1269;22701;-64
2023/09/30 03:10:40;;;;;;;2.20;1.10;;;;;;;17.06;100.00;99536.89;106699;1269;99446;-63
2023/09/30 03:13:09;;;;;;;2.50;1.60;;;;;;;16.95;100.00;99548.30;106841;1269;22537;-64
2023/09/30 03:15:38;;;;;;;3.60;0.80;;;;;;;16.85;100.00;99555.75;107446;1269;24366;-63
2023/09/30 03:18:07;;;;;;;1.50;0.70;;;;;;;16.74;100.00;99562.41;106612;1269;100360;-63
2023/09/30 03:20:40;;;;;;;0.80;0.60;;;;;;;16.62;100.00;99564.27;106875;1269;22520;-63
2023/09/30 03:23:10;;;;;;;1.20;0.50;;;;;;;16.39;100.00;99562.48;106673;1269;99217;-63
2023/09/30 03:25:39;;;;;;;2.40;0.70;;;;;;;16.22;100.00;99572.45;106933;1269;25258;-63
2023/09/30 03:28:08;;;;;;;1.50;0.60;;;;;;;16.14;100.00;99570.78;106670;1269;100062;-64
2023/09/30 03:30:36;;;;;;;1.00;0.40;;;;;;;16.07;100.00;99578.99;106770;1269;27020;-65
2023/09/30 03:33:05;;;;;;;1.30;0.50;;;;;;;15.98;100.00;99583.22;107680;1269;22648;-62
2023/09/30 03:35:35;;;;;;;0.70;0.40;;;;;;;15.88;100.00;99584.23;107150;1269;99779;-63
2023/09/30 03:38:04;;;;;;;2.70;0.60;;;;;;;15.83;100.00;99595.13;106823;1269;22998;-63
2023/09/30 03:40:33;;;;;;;1.40;0.80;;;;;;;15.80;100.00;99593.75;108125;1269;99474;-63
2023/09/30 03:43:03;;;;;;;1.50;0.50;;;;;;;15.71;100.00;99595.64;106644;1262;22785;-63
2023/09/30 03:45:32;;;;;;;3.10;0.80;;;;;;;15.64;100.00;99601.13;106683;1269;24319;-63
2023/09/30 03:48:02;;;;;;;1.90;0.60;;;;;;;15.57;100.00;99607.48;106547;1269;100213;-62
2023/09/30 03:50:31;;;;;;;5.00;0.90;;;;;;;15.51;100.00;99612.08;106693;1269;22532;-63
2023/09/30 03:53:07;;;;;;;3.10;1.10;;;;;;;15.48;100.00;99610.53;106379;1270;99829;-63
2023/09/30 03:55:36;;;;;;;2.50;0.70;;;;;;;15.42;100.00;99609.83;106661;1270;25349;-63
2023/09/30 03:58:05;;;;;;;2.00;0.80;;;;;;;15.36;100.00;99617.47;106622;1270;100412;-62
2023/09/30 04:00:35;;;;;;;2.60;0.70;;;;;;;15.33;100.00;99619.45;106497;1271;25243;-64
2023/09/30 04:03:04;;;;;;;2.40;0.50;;;;;;;15.30;100.00;99618.45;106596;1269;25306;-63
2023/09/30 04:05:36;;;;;;;1.50;0.80;;;;;;;15.26;100.00;99624.70;106340;1270;100275;-63
2023/09/30 04:08:05;;;;;;;3.20;1.10;;;;;;;15.22;100.00;99633.39;106660;1255;23801;-63
2023/09/30 04:10:34;;;;;;;1.30;0.70;;;;;;;15.18;100.00;99640.32;106390;1271;100179;-64
2023/09/30 04:13:03;;;;;;;2.30;0.60;;;;;;;15.15;100.00;99641.20;106900;1271;25896;-64
2023/09/30 04:15:31;;;;;;;2.90;0.60;;;;;;;15.13;100.00;99641.85;106760;1270;22526;-63
2023/09/30 04:18:00;;;;;;;1.40;0.70;;;;;;;15.12;100.00;99644.23;106702;1270;99822;-64
2023/09/30 04:20:29;;;;;;;2.80;1.00;;;;;;;15.11;100.00;99645.83;106890;1271;25291;-64
2023/09/30 04:22:58;;;;;;;3.80;0.80;;;;;;;15.12;100.00;99650.15;106486;1270;99861;-63
2023/09/30 04:25:26;;;;;;;3.90;1.50;;;;;;;15.11;100.00;99654.80;106605;1268;25233;-63
2023/09/30 04:27:55;;;;;;;4.70;1.00;;;;;;;15.11;100.00;99660.98;106689;1270;22648;-64
2023/09/30 04:30:24;;;;;;;4.40;0.90;;;;;;;15.07;100.00;99663.98;106919;1270;22537;-63
2023/09/30 04:32:54;;;;;;;3.10;1.20;;;;;;;15.03;100.00;99667.60;106964;1269;23135;-64
2023/09/30 04:35:25;;;;;;;5.60;1.80;;;;;;;15.02;100.00;99673.11;106539;1259;100439;-64
2023/09/30 04:37:54;;;;;;;3.50;1.10;;;;;;;15.00;100.00;99671.10;107254;1269;24441;-63
2023/09/30 04:40:23;;;;;;;4.10;1.00;;;;;;;14.96;100.00;99678.54;106667;1269;99502;-64
2023/09/30 04:42:54;;;;;;;3.10;0.90;;;;;;;14.92;100.00;99684.77;106529;1270;24276;-63
2023/09/30 04:45:24;;;;;;;5.70;1.30;;;;;;;14.85;100.00;99690.36;107029;1267;22539;-63
2023/09/30 04:47:56;;;;;;;3.30;1.50;;;;;;;14.78;100.00;99690.29;106711;1269;99902;-62
2023/09/30 04:50:25;;;;;;;5.10;1.40;;;;;;;14.67;100.00;99687.98;109693;1270;23052;-63
2023/09/30 04:52:53;;;;;;;5.50;1.30;;;;;;;14.54;100.00;99697.23;106492;1269;99426;-64
2023/09/30 04:55:22;;;;;;;4.10;1.60;;;;;;;14.40;100.00;99699.53;107040;1269;25204;-63
2023/09/30 04:57:51;;;;;;;6.30;1.40;;;;;;;14.28;100.00;99707.80;106832;1270;25307;-63
2023/09/30 05:00:24;;;;;;;2.50;0.90;;;;;;;14.16;100.00;99707.13;106563;1262;99165;-64
2023/09/30 05:02:59;;;;;;;2.60;1.10;;;;;;;14.06;100.00;99718.95;106919;1269;22517;-64
2023/09/30 05:05:28;;;;;;;5.30;1.20;;;;;;;13.96;100.00;99726.54;106534;1269;99216;-64
2023/09/30 05:07:57;;;;;;;6.30;1.10;;;;;;;13.86;100.00;99728.92;106603;1265;22657;-63
2023/09/30 05:10:26;;;;;;;6.60;1.60;;;;;;;13.77;100.00;99727.41;106644;1269;101569;-64
2023/09/30 05:12:55;;;;;;;4.30;1.60;;;;;;;13.68;100.00;99735.07;106696;1270;25557;-61
2023/09/30 05:15:29;;;;;;;5.00;2.00;;;;;;;13.61;100.00;99737.92;107082;1269;25298;-61
2023/09/30 05:17:58;;;;;;;5.10;0.90;;;;;;;13.57;100.00;99743.45;106452;1270;99341;-61
2023/09/30 05:20:27;;;;;;;5.00;1.20;;;;;;;13.53;100.00;99742.47;107933;1269;22523;-61
2023/09/30 05:22:56;;;;;;;14.20;4.20;;;;;;;13.49;100.00;99744.94;107127;1272;100128;-61
2023/09/30 05:25:26;;;;;;;3.20;1.70;;;;;;;13.49;100.00;99747.95;106815;1269;371474;-62
2023/09/30 05:28:11;;;;;;;7.00;1.30;;;;;;;13.55;100.00;99749.13;106876;1269;99684;-60
2023/09/30 05:30:40;;;;;;;2.90;1.10;;;;;;;13.67;100.00;99749.85;106847;1269;24282;-62
2023/09/30 05:33:14;;;;;;;3.00;1.00;;;;;;;13.75;100.00;99749.21;106711;1270;22540;-61
2023/09/30 05:35:43;;;;;;;4.80;1.10;;;;;;;13.83;100.00;99754.86;106515;1272;100122;-61
2023/09/30 05:38:13;;;;;;;2.80;1.20;;;;;;;13.90;100.00;99759.67;109162;1269;22635;-61
2023/09/30 05:40:42;;;;;;;4.70;1.40;;;;;;;13.95;100.00;99763.03;107116;1269;99644;-62
2023/09/30 05:43:16;;;;;;;3.60;1.40;;;;;;;13.98;100.00;99766.67;107144;1263;24255;-62
2023/09/30 05:45:49;;;;;;;6.60;2.70;;;;;;;14.10;100.00;99767.23;107376;1269;22613;-61
2023/09/30 05:48:18;;;;;;;2.90;1.00;;;;;;;14.25;100.00;99772.75;107222;1269;99598;-62
2023/09/30 05:50:48;;;;;;;3.30;1.50;;;;;;;14.34;100.00;99778.65;107321;1270;22524;-60
2023/09/30 05:53:17;;;;;;;5.00;1.70;;;;;;;14.47;100.00;99777.88;106819;1270;99411;-59
2023/09/30 06:09:43;;;;;;;4.00;1.40;;;;;;;14.97;100.00;99791.73;104785;1294;555845;-61
2023/09/30 06:12:12;;;;;;;6.30;1.90;;;;;;;15.04;100.00;99795.19;105900;1282;367265;-60
2023/09/30 06:14:41;;;;;;;6.90;1.90;;;;;;;14.95;100.00;99794.30;106300;1281;98833;-60
2023/09/30 06:17:09;;;;;;;5.10;1.20;;;;;;;14.88;100.00;99795.67;106587;1271;22961;-62
2023/09/30 06:19:38;;;;;;;2.40;1.00;;;;;;;14.91;100.00;99794.02;106533;1278;25364;-60
2023/09/30 06:22:07;;;;;;;3.70;0.80;;;;;;;14.94;100.00;99802.77;109250;1278;99136;-58
2023/09/30 06:24:36;;;;;;;1.90;1.00;;;;;;;14.95;100.00;99802.69;106231;1278;22563;-60
2023/09/30 06:27:05;;;;;;;6.30;1.80;;;;;;;15.03;100.00;99799.41;106109;1279;99232;-62
2023/09/30 06:29:34;;;;;;;4.90;1.30;;;;;;;15.15;99.99;99803.21;106201;1280;25311;-60
2023/09/30 06:32:05;;;;;;;6.70;2.30;;;;;;;15.28;99.89;99804.46;106423;1283;22787;-67
2023/09/30 06:34:34;;;;;;;4.80;1.70;;;;;;;15.44;99.80;99805.52;106128;1278;98800;-63
2023/09/30 06:37:03;;;;;;;7.60;1.70;;;;;;;15.60;99.64;99807.58;106081;1276;22596;-63
2023/09/30 06:39:32;;;;;;;5.90;1.30;;;;;;;15.74;99.45;99802.85;106189;1278;98544;-63
2023/09/30 06:42:01;;;;;;;2.60;1.00;;;;;;;15.91;99.27;99804.13;106016;1279;22544;-63
2023/09/30 06:44:31;;;;;;;3.30;0.80;;;;;;;16.12;99.31;99809.17;106223;1279;99253;-63
2023/09/30 06:47:00;;;;;;;3.70;0.90;;;;;;;16.30;98.99;99807.05;106181;1281;22548;-63
2023/09/30 06:49:30;;;;;;;5.30;1.30;;;;;;;16.48;98.76;99813.22;106232;1265;22551;-63
2023/09/30 06:51:59;;;;;;;5.50;1.30;;;;;;;16.63;98.51;99818.31;106137;1278;98615;-63
2023/09/30 06:54:28;;;;;;;3.60;0.90;;;;;;;16.76;98.09;99815.11;106244;1272;25298;-64
2023/09/30 06:56:57;;;;;;;5.60;2.30;;;;;;;16.83;97.82;99817.95;106356;1280;98606;-64
2023/09/30 06:59:26;;;;;;;2.00;1.00;;;;;;;16.87;97.60;99822.30;106449;1271;24306;-61
2023/09/30 07:01:55;;;;;;;2.70;0.70;;;;;;;16.94;97.74;99821.40;106076;1279;22534;-62
2023/09/30 07:04:41;;;;;;;4.00;1.70;;;;;;;17.10;97.57;99822.71;106234;1279;99451;-64
2023/09/30 07:07:15;;;;;;;3.20;1.10;;;;;;;17.35;97.63;99820.35;106359;1276;23681;-62
2023/09/30 07:09:44;;;;;;;3.20;1.10;;;;;;;17.63;97.51;99821.92;106000;1280;99069;-62
2023/09/30 07:12:13;;;;;;;5.00;1.60;;;;;;;17.89;97.18;99829.56;106399;1276;22534;-63
2023/09/30 07:14:42;;;;;;;3.20;1.00;;;;;;;18.09;96.58;99831.52;106116;1279;99356;-62
2023/09/30 07:17:10;;;;;;;4.50;1.30;;;;;;;18.31;96.63;99833.55;106878;1278;25742;-62
2023/09/30 07:19:39;;;;;;;6.30;1.90;;;;;;;18.53;95.86;99840.96;106511;1280;23582;-62
2023/09/30 07:22:08;;;;;;;4.00;1.20;;;;;;;18.89;96.54;99836.06;106323;1278;98406;-63
2023/09/30 07:24:39;;;;;;;3.10;1.20;;;;;;;19.20;95.85;99842.73;106416;1279;25567;-62
2023/09/30 07:27:07;;;;;;;2.40;0.80;;;;;;;19.16;94.65;99848.14;106384;1280;98819;-61
2023/09/30 07:29:55;;;;;;;2.50;1.00;;;;;;;18.86;93.98;99845.81;108007;1280;22651;-61
2023/09/30 07:32:24;;;;;;;3.40;1.50;;;;;;;18.63;93.76;99856.27;105871;1283;100188;-63
2023/09/30 07:34:52;;;;;;;2.50;1.00;;;;;;;18.43;93.34;99852.34;106045;1270;24223;-61
2023/09/30 07:37:21;;;;;;;4.90;1.50;;;;;;;18.20;92.90;99857.44;106105;1278;22895;-59
2023/09/30 07:39:50;;;;;;;4.10;1.00;;;;;;;18.27;93.20;99859.40;106277;1272;100547;-59
2023/09/30 07:42:18;;;;;;;4.50;1.50;;;;;;;18.45;93.35;99862.05;106922;1271;25494;-61
2023/09/30 07:44:46;;;;;;;7.90;1.70;;;;;;;18.59;92.76;99863.21;106441;1272;99331;-61
2023/09/30 07:47:15;;;;;;;4.40;1.70;;;;;;;18.89;92.36;99865.68;106593;1271;24259;-57
2023/09/30 07:49:43;;;;;;;3.00;1.20;;;;;;;19.14;92.49;99867.70;106581;1271;22918;-55
2023/09/30 07:52:12;;;;;;;5.20;1.60;;;;;;;19.34;91.92;99871.89;106669;1271;98845;-61
2023/09/30 07:54:41;;;;;;;4.00;1.00;;;;;;;19.86;92.96;99874.69;106440;1276;25441;-57
2023/09/30 07:57:09;;;;;;;2.40;0.80;;;;;;;20.29;91.66;99874.63;106465;1271;100773;-59
2023/09/30 07:59:38;;;;;;;3.90;1.40;;;;;;;20.53;90.94;99875.23;106349;1273;25248;-52
2023/09/30 08:02:06;;;;;;;4.30;1.30;;;;;;;21.02;91.07;99877.17;106655;1276;25364;-57
2023/09/30 08:04:35;;;;;;;1.50;0.90;;;;;;;21.75;91.03;99877.75;106681;1270;98569;-58
2023/09/30 08:07:04;;;;;;;2.30;0.80;;;;;;;22.33;90.79;99881.77;106482;1271;25601;-58
2023/09/30 08:09:33;;;;;;;3.80;1.30;;;;;;;23.02;89.97;99883.23;106373;1271;99483;-60
2023/09/30 08:12:01;;;;;;;5.80;1.30;;;;;;;23.88;90.34;99880.36;107039;1277;26497;-61
2023/09/30 08:14:30;;;;;;;3.90;1.30;;;;;;;25.01;89.55;99872.96;106465;1271;99802;-57
2023/09/30 08:16:58;;;;;;;1.40;0.60;;;;;;;25.31;87.90;99871.88;106543;1271;24046;-56
2023/09/30 08:19:27;;;;;;;3.90;1.50;;;;;;;24.54;84.81;99878.54;106723;1271;25341;-49
2023/09/30 08:21:57;;;;;;;5.00;1.50;;;;;;;23.62;85.04;99881.77;106509;1270;98549;-61
2023/09/30 08:24:30;;;;;;;2.50;0.70;;;;;;;23.11;85.02;99889.14;106728;1271;22543;-64
2023/09/30 08:27:01;;;;;;;2.10;1.00;;;;;;;22.84;84.56;99896.25;106609;1270;99432;-64
2023/09/30 08:29:30;;;;;;;3.80;0.70;;;;;;;24.25;88.19;99897.77;106540;1271;23520;-62
2023/09/30 08:31:58;;;;;;;5.10;1.70;;;;;;;26.91;85.76;99894.48;106513;1271;25700;-60
2023/09/30 08:34:27;;;;;;;1.70;0.60;;;;;;;27.19;80.94;99900.60;106362;1271;99100;-64
2023/09/30 08:36:58;;;;;;;4.80;0.80;;;;;;;26.67;79.47;99900.52;106524;1271;22536;-61
2023/09/30 08:39:28;;;;;;;3.60;1.50;;;;;;;25.69;78.84;99906.39;106582;1271;99529;-61
2023/09/30 08:41:58;;;;;;;2.90;0.70;;;;;;;24.69;77.53;99909.05;106763;1269;24753;-63
2023/09/30 08:44:27;;;;;;;5.70;0.80;;;;;;;23.75;77.19;99917.13;106546;1271;99490;-61
2023/09/30 08:46:56;;;;;;;2.80;1.40;;;;;;;23.44;76.68;99920.84;106439;1271;22538;-61
2023/09/30 08:49:27;;;;;;;1.00;0.50;;;;;;;23.14;75.87;99922.92;106472;1263;24385;-63
2023/09/30 08:51:58;;;;;;;4.30;1.10;;;;;;;23.31;76.30;99921.06;106407;1271;99408;-62
2023/09/30 08:54:27;;;;;;;2.80;1.00;;;;;;;24.80;76.09;99920.84;106792;1271;22547;-58
2023/09/30 08:56:56;;;;;;;3.00;0.90;;;;;;;24.94;73.51;99919.59;106437;1270;99985;-58
2023/09/30 08:59:25;;;;;;;3.20;0.90;;;;;;;24.45;72.97;99925.02;106417;1256;24245;-57
2023/09/30 09:01:53;;;;;;;4.90;1.80;;;;;;;25.60;74.96;99920.20;106401;1271;25509;-56
2023/09/30 09:04:22;;;;;;;1.90;0.60;;;;;;;27.21;72.62;99924.30;106495;1270;99512;-56
2023/09/30 09:06:55;;;;;;;3.40;1.20;;;;;;;28.43;72.99;99923.40;106595;1271;25375;-57
2023/09/30 09:09:23;;;;;;;6.80;1.20;;;;;;;29.19;70.50;99922.71;106500;1271;99139;-57
2023/09/30 09:11:52;;;;;;;1.60;0.70;;;;;;;28.83;68.87;99925.02;106476;1271;24240;-58
2023/09/30 09:14:40;;;;;;;4.20;0.80;;;;;;;27.45;67.03;99933.71;106528;1271;22531;-59
2023/09/30 09:17:11;;;;;;;4.50;1.90;;;;;;;26.52;67.29;99933.56;106610;1264;22644;-59
2023/09/30 09:19:40;;;;;;;1.90;0.70;;;;;;;26.44;66.02;99940.28;106563;1274;22784;-58
2023/09/30 09:22:08;;;;;;;1.70;0.50;;;;;;;25.65;65.05;99942.23;106407;1274;99780;-58
2023/09/30 09:24:38;;;;;;;2.40;0.60;;;;;;;24.99;64.32;99944.85;106718;1270;22807;-58
2023/09/30 09:27:14;;;;;;;2.60;0.70;;;;;;;26.08;66.66;99945.16;106446;1271;99899;-58
2023/09/30 09:29:44;;;;;;;4.80;0.90;;;;;;;27.52;63.80;99947.15;106513;1271;22519;-57
2023/09/30 09:32:17;;;;;;;3.10;1.10;;;;;;;27.39;63.48;99941.81;106461;1271;24056;-57
2023/09/30 09:35:00;;;;;;;1.80;0.90;;;;;;;29.13;64.35;99937.99;106610;1271;98327;-57
2023/09/30 09:37:32;;;;;;;4.90;0.80;;;;;;;29.39;61.41;99938.00;106516;1271;24445;-58
2023/09/30 09:40:00;;;;;;;3.90;1.20;;;;;;;28.22;60.33;99936.11;106397;1274;99661;-58
2023/09/30 09:42:34;;;;;;;1.40;0.60;;;;;;;27.23;60.06;99941.44;106636;1271;22615;-59
2023/09/30 09:45:06;;;;;;;5.40;0.90;;;;;;;26.38;59.83;99938.41;106449;1271;99386;-58
2023/09/30 09:47:35;;;;;;;2.60;0.60;;;;;;;25.79;59.42;99939.66;106456;1271;22558;-58
2023/09/30 09:50:05;;;;;;;1.80;0.70;;;;;;;25.10;58.71;99946.41;106569;1271;22534;-59
2023/09/30 09:52:35;;;;;;;5.00;0.80;;;;;;;24.41;58.32;99949.08;106629;1275;99263;-58
2023/09/30 09:55:05;;;;;;;2.70;1.20;;;;;;;24.87;59.66;99950.21;107051;1271;22673;-58
2023/09/30 09:57:35;;;;;;;5.10;1.20;;;;;;;26.73;58.87;99948.13;106343;1260;99134;-58
2023/09/30 10:00:08;;;;;;;4.80;1.00;;;;;;;26.94;57.57;99947.18;107607;1271;22645;-58
2023/09/30 10:02:40;;;;;;;3.20;1.20;;;;;;;26.23;56.92;99950.56;106628;1271;100100;-58
2023/09/30 10:05:11;;;;;;;3.20;1.00;;;;;;;25.23;53.44;99961.45;106434;1271;22535;-58
2023/09/30 10:08:05;;;;;;;3.50;1.10;;;;;;;24.09;53.18;99969.84;106363;1276;22524;-59
2023/09/30 10:10:38;;;;;;;3.60;1.10;;;;;;;22.87;52.89;99974.06;106577;1271;98801;-57
2023/09/30 10:13:07;;;;;;;3.00;1.00;;;;;;;21.91;53.08;99976.20;106445;1271;22555;-58
2023/09/30 10:15:39;;;;;;;2.50;0.70;;;;;;;21.33;53.35;99980.50;106414;1274;100669;-57
2023/09/30 10:18:12;;;;;;;2.60;1.10;;;;;;;21.11;53.76;99984.71;106467;1269;25352;-56
2023/09/30 10:20:44;;;;;;;3.00;0.70;;;;;;;21.17;53.83;99978.65;106409;1271;99588;-58
2023/09/30 10:23:20;;;;;;;3.50;1.00;;;;;;;21.78;54.77;99976.31;106400;1270;22533;-57
2023/09/30 10:25:54;;;;;;;2.90;1.00;;;;;;;24.84;55.89;99980.13;106788;1271;22552;-58
2023/09/30 10:28:44;;;;;;;2.70;0.90;;;;;;;26.70;54.22;99972.59;106444;1269;99345;-58
2023/09/30 10:31:24;;;;;;;4.30;0.70;;;;;;;26.60;54.23;99979.02;106504;1276;25825;-57
2023/09/30 10:33:59;;;;;;;7.80;2.40;;;;;;;26.96;54.65;99979.52;106312;1271;99457;-58
2023/09/30 10:36:30;;;;;;;4.60;1.20;;;;;;;29.34;55.39;99978.96;106593;1270;22686;-58
2023/09/30 10:38:59;;;;;;;2.20;0.70;;;;;;;30.31;53.24;99975.06;106610;1270;99516;-57
2023/09/30 10:41:40;;;;;;;3.20;1.30;;;;;;;30.65;53.31;99971.27;106801;1271;24731;-57
2023/09/30 10:44:27;;;;;;;4.70;0.90;;;;;;;29.95;51.62;99975.12;106594;1257;24203;-58
2023/09/30 10:47:02;;;;;;;3.70;1.10;;;;;;;29.05;49.90;99979.71;106465;1269;22601;-59
2023/09/30 10:49:33;;;;;;;4.00;1.20;;;;;;;28.13;50.05;99981.55;106556;1271;23103;-58
2023/09/30 10:52:03;;;;;;;3.90;0.90;;;;;;;28.42;50.54;99987.22;106341;1278;99457;-58
2023/09/30 10:54:33;;;;;;;4.90;1.00;;;;;;;29.29;50.14;99978.98;106425;1255;25249;-58
2023/09/30 10:57:03;;;;;;;6.20;1.10;;;;;;;29.51;48.39;99981.33;106440;1271;99579;-59
2023/09/30 10:59:34;;;;;;;3.70;2.00;;;;;;;28.00;47.61;99988.33;106489;1270;24272;-57
2023/09/30 11:02:04;;;;;;;2.40;1.10;;;;;;;26.68;47.33;99992.19;106645;1271;22517;-56
2023/09/30 11:04:46;;;;;;;3.50;0.80;;;;;;;25.59;47.12;99996.33;106581;1270;99307;-48
2023/09/30 11:07:25;;;;;;;6.40;1.30;;;;;;;24.51;46.53;100001.48;106842;1271;25377;-57
2023/09/30 11:09:55;;;;;;;4.50;1.10;;;;;;;23.53;46.74;100003.85;106477;1271;99863;-55
2023/09/30 11:12:25;;;;;;;3.40;0.80;;;;;;;23.61;47.44;100001.30;106541;1271;22523;-57
2023/09/30 11:15:03;;;;;;;1.30;0.70;;;;;;;25.57;48.57;99994.34;106696;1272;99654;-57
2023/09/30 11:17:31;;;;;;;4.70;1.40;;;;;;;28.88;48.74;99996.55;106774;1256;22538;-56
2023/09/30 11:20:00;;;;;;;4.60;1.40;;;;;;;30.65;47.82;99993.98;106502;1271;27712;-56
2023/09/30 11:22:29;;;;;;;3.60;1.00;;;;;;;30.16;46.86;99994.80;106605;1272;101144;-56
2023/09/30 11:24:58;;;;;;;2.20;0.80;;;;;;;29.30;46.78;99995.08;106588;1271;25264;-55
2023/09/30 11:27:27;;;;;;;4.10;1.00;;;;;;;28.95;46.26;100001.53;106823;1271;99450;-55
2023/09/30 11:29:57;;;;;;;3.30;1.30;;;;;;;27.69;45.45;100002.16;106610;1269;24234;-55
2023/09/30 11:32:28;;;;;;;4.20;1.20;;;;;;;26.40;45.37;100008.35;106730;1269;23691;-55
2023/09/30 11:34:58;;;;;;;4.40;1.30;;;;;;;25.52;45.48;100002.84;106814;1272;23422;-55
2023/09/30 11:37:33;;;;;;;8.20;1.60;;;;;;;26.11;45.72;100005.75;106579;1270;24052;-56
2023/09/30 11:40:16;;;;;;;5.00;1.30;;;;;;;28.27;46.14;100001.20;106690;1271;99971;-55
2023/09/30 11:43:08;;;;;;;3.50;1.10;;;;;;;29.10;44.93;100001.19;106436;1271;22629;-55
2023/09/30 11:45:37;;;;;;;3.10;0.80;;;;;;;28.54;44.71;100002.12;106729;1271;98981;-56
2023/09/30 11:48:26;;;;;;;3.70;1.60;;;;;;;27.50;44.31;100004.33;106862;1277;23027;-55